createdAt,value
2022-11-07T00:00:43.828Z,19.4
2022-11-07T00:02:59.292Z,19.3
2022-11-07T00:05:16.607Z,19.1
2022-11-07T00:07:34.327Z,19.4
2022-11-07T00:09:52.139Z,19.6
2022-11-07T00:12:09.845Z,19.5
2022-11-07T00:14:27.900Z,19.7
2022-11-07T00:16:45.641Z,18.3
2022-11-07T00:19:03.326Z,19.3
2022-11-07T00:21:21.050Z,19.3
2022-11-07T00:23:39.118Z,19.1
2022-11-07T00:25:57.220Z,18.4
2022-11-07T00:28:15.041Z,18.2
2022-11-07T00:30:32.799Z,19.3
2022-11-07T00:32:50.906Z,19.4
2022-11-07T00:35:08.541Z,18.3
2022-11-07T00:37:26.348Z,19.3
2022-11-07T00:39:44.375Z,19.3
2022-11-07T00:42:02.438Z,18.3
2022-11-07T00:44:20.392Z,18.1
2022-11-07T00:46:37.974Z,19.1
2022-11-07T00:48:55.705Z,19.4
2022-11-07T00:51:13.793Z,19.1
2022-11-07T00:53:31.507Z,18.3
2022-11-07T00:55:49.546Z,18.9
2022-11-07T00:58:11.153Z,18.1
2022-11-07T01:00:25.097Z,19.2
2022-11-07T01:02:42.960Z,19.3
2022-11-07T01:05:00.721Z,19
2022-11-07T01:07:18.617Z,19
2022-11-07T01:09:36.744Z,18.2
2022-11-07T01:11:54.894Z,18.2
2022-11-07T01:14:13.168Z,18.2
2022-11-07T01:16:30.465Z,19.1
2022-11-07T01:18:48.363Z,19
2022-11-07T01:21:06.064Z,19.3
2022-11-07T01:23:23.750Z,19.1
2022-11-07T01:25:41.352Z,19.1
2022-11-07T01:27:59.443Z,19.1
2022-11-07T01:30:18.282Z,18.3
2022-11-07T01:32:35.217Z,18.1
2022-11-07T01:34:52.969Z,19.3
2022-11-07T01:37:10.847Z,19
2022-11-07T01:39:28.508Z,19.1
2022-11-07T01:41:46.177Z,19
2022-11-07T01:44:04.100Z,18.9
2022-11-07T01:46:21.732Z,19.2
2022-11-07T01:48:39.780Z,19.1
2022-11-07T01:50:57.552Z,18.2
2022-11-07T01:53:15.718Z,19.2
2022-11-07T01:55:33.000Z,19.3
2022-11-07T01:57:50.753Z,19
2022-11-07T02:00:08.769Z,19.1
2022-11-07T02:02:26.741Z,18.2
2022-11-07T02:04:44.196Z,19.1
2022-11-07T02:07:01.958Z,19.2
2022-11-07T02:09:19.756Z,19.1
2022-11-07T02:11:37.404Z,18.9
2022-11-07T02:13:55.230Z,19.1
2022-11-07T02:16:13.378Z,18.9
2022-11-07T02:18:30.956Z,18.1
2022-11-07T02:20:48.833Z,19.1
2022-11-07T02:23:06.620Z,19.1
2022-11-07T02:25:24.683Z,19
2022-11-07T02:27:42.264Z,18.9
2022-11-07T02:30:00.307Z,19
2022-11-07T02:32:18.307Z,19.1
2022-11-07T02:34:36.287Z,18
2022-11-07T02:36:54.629Z,18.9
2022-11-07T02:39:11.768Z,19
2022-11-07T02:41:29.822Z,19.1
2022-11-07T02:43:47.530Z,19
2022-11-07T02:46:05.373Z,18.9
2022-11-07T02:48:23.392Z,19.1
2022-11-07T02:50:41.373Z,17.8
2022-11-07T02:52:59.118Z,18.8
2022-11-07T02:55:17.188Z,18.9
2022-11-07T02:57:34.841Z,18.9
2022-11-07T02:59:52.858Z,19.1
2022-11-07T03:02:10.888Z,18.9
2022-11-07T03:04:28.360Z,18.9
2022-11-07T03:06:46.315Z,18.9
2022-11-07T03:09:04.056Z,18.8
2022-11-07T03:11:21.958Z,18.9
2022-11-07T03:13:39.896Z,19.1
2022-11-07T03:15:57.709Z,18.9
2022-11-07T03:18:15.431Z,18.8
2022-11-07T03:20:33.371Z,19.1
2022-11-07T03:22:51.155Z,19
2022-11-07T03:25:08.959Z,18.9
2022-11-07T03:27:26.618Z,18.8
2022-11-07T03:29:44.721Z,18.8
2022-11-07T03:32:02.660Z,18.9
2022-11-07T03:34:20.499Z,17.9
2022-11-07T03:36:38.418Z,18.9
2022-11-07T03:38:56.180Z,19.1
2022-11-07T03:41:14.162Z,18.9
2022-11-07T03:43:31.931Z,18.9
2022-11-07T03:45:49.901Z,19.1
2022-11-07T03:48:07.830Z,18.9
2022-11-07T03:50:25.299Z,18.9
2022-11-07T03:52:43.396Z,18.9
2022-11-07T03:55:01.129Z,18.9
2022-11-07T03:57:19.110Z,18.8
2022-11-07T03:59:36.838Z,18.9
2022-11-07T04:01:54.995Z,18.8
2022-11-07T04:04:12.515Z,18.8
2022-11-07T04:06:30.390Z,18.8
2022-11-07T04:08:48.461Z,19
2022-11-07T04:11:06.539Z,17.5
2022-11-07T04:13:24.554Z,17.5
2022-11-07T04:15:42.411Z,18.9
2022-11-07T04:18:00.308Z,18.9
2022-11-07T04:20:18.013Z,18.9
2022-11-07T04:22:36.086Z,19.1
2022-11-07T04:24:53.815Z,18.9
2022-11-07T04:27:11.821Z,18.9
2022-11-07T04:29:29.612Z,18.9
2022-11-07T04:31:47.493Z,18.8
2022-11-07T04:34:05.574Z,18.9
2022-11-07T04:36:23.315Z,18.9
2022-11-07T04:38:41.352Z,17.9
2022-11-07T04:40:59.069Z,18.9
2022-11-07T04:43:17.371Z,18.6
2022-11-07T04:45:34.856Z,19
2022-11-07T04:47:52.750Z,18.9
2022-11-07T04:50:10.586Z,18.8
2022-11-07T04:52:28.763Z,18.8
2022-11-07T04:54:46.570Z,17.8
2022-11-07T04:57:04.345Z,18.8
2022-11-07T04:59:22.348Z,18.8
2022-11-07T05:01:40.460Z,18.9
2022-11-07T05:03:58.412Z,17.7
2022-11-07T05:06:16.229Z,18.8
2022-11-07T05:08:34.217Z,18.8
2022-11-07T05:10:52.377Z,18.8
2022-11-07T05:13:10.416Z,17.8
2022-11-07T05:15:28.134Z,18.8
2022-11-07T05:17:46.149Z,18.8
2022-11-07T05:20:04.286Z,18.8
2022-11-07T05:22:21.652Z,18.6
2022-11-07T05:26:57.315Z,18.8
2022-11-07T05:31:33.058Z,18.8
2022-11-07T05:33:50.969Z,18.8
2022-11-07T05:36:08.792Z,18.8
2022-11-07T05:38:26.727Z,18.8
2022-11-07T05:40:44.536Z,18.8
2022-11-07T05:49:56.379Z,18.8
2022-11-07T05:52:14.644Z,18.9
2022-11-07T05:54:32.969Z,17.8
2022-11-07T05:56:50.540Z,17.5
2022-11-07T05:59:08.672Z,18.8
2022-11-07T06:01:26.387Z,18.8
2022-11-07T06:03:44.506Z,18.8
2022-11-07T06:06:02.377Z,18.8
2022-11-07T06:08:19.852Z,18.9
2022-11-07T06:10:38.022Z,18.9
2022-11-07T06:12:56.200Z,18.9
2022-11-07T06:15:13.678Z,18.8
2022-11-07T06:17:31.457Z,18.9
2022-11-07T06:22:07.177Z,19
2022-11-07T06:24:25.256Z,18.9
2022-11-07T06:26:43.601Z,18.8
2022-11-07T06:29:01.188Z,17.8
2022-11-07T06:31:19.209Z,18.9
2022-11-07T06:33:37.025Z,18.9
2022-11-07T06:35:55.108Z,19
2022-11-07T06:38:12.823Z,19
2022-11-07T06:40:31.130Z,18.9
2022-11-07T06:42:49.280Z,18.1
2022-11-07T06:45:07.276Z,17.8
2022-11-07T06:47:24.998Z,19
2022-11-07T06:49:43.068Z,18.9
2022-11-07T06:52:01.123Z,19
2022-11-07T06:54:18.694Z,18.9
2022-11-07T06:56:36.694Z,19.1
2022-11-07T06:58:54.454Z,19.2
2022-11-07T07:01:12.523Z,19
2022-11-07T07:03:46.606Z,19
2022-11-07T07:06:04.421Z,18
2022-11-07T07:08:22.306Z,19.1
2022-11-07T07:10:40.050Z,18.9
2022-11-07T07:12:57.918Z,19.1
2022-11-07T07:15:15.745Z,19.1
2022-11-07T07:17:39.156Z,19.1
2022-11-07T07:19:56.716Z,19.1
2022-11-07T07:22:14.505Z,19.1
2022-11-07T07:24:32.151Z,18.9
2022-11-07T07:26:50.091Z,19.2
2022-11-07T07:29:07.838Z,18.9
2022-11-07T07:31:25.933Z,19.3
2022-11-07T07:33:43.651Z,19.1
2022-11-07T07:36:01.613Z,19.1
2022-11-07T07:38:19.671Z,19.1
2022-11-07T07:40:37.378Z,19.1
2022-11-07T07:42:55.233Z,19
2022-11-07T07:45:13.211Z,19.1
2022-11-07T07:47:31.133Z,19.3
2022-11-07T07:49:48.977Z,19.2
2022-11-07T07:52:06.925Z,19
2022-11-07T07:54:24.795Z,19.2
2022-11-07T07:56:42.596Z,19.3
2022-11-07T07:59:00.591Z,19.3
2022-11-07T08:01:18.728Z,19.3
2022-11-07T08:03:57.933Z,18.1
2022-11-07T08:06:05.177Z,19.2
2022-11-07T08:08:23.144Z,19.4
2022-11-07T08:10:57.287Z,19.2
2022-11-07T08:13:15.723Z,19.4
2022-11-07T08:15:33.296Z,18.1
2022-11-07T08:17:51.333Z,19.6
2022-11-07T08:20:09.364Z,19.4
2022-11-07T08:22:27.138Z,19.6
2022-11-07T08:24:45.244Z,19.5
2022-11-07T08:27:03.244Z,18.4
2022-11-07T08:29:21.279Z,19.6
2022-11-07T08:31:39.010Z,19.6
2022-11-07T08:33:57.073Z,19.9
2022-11-07T08:36:14.896Z,19.6
2022-11-07T08:38:32.817Z,19.8
2022-11-07T08:40:50.909Z,19.7
2022-11-07T08:43:09.210Z,18.6
2022-11-07T08:45:26.976Z,18.8
2022-11-07T08:47:45.039Z,19.9
2022-11-07T08:50:02.927Z,19.9
2022-11-07T08:52:20.841Z,20
2022-11-07T08:54:39.097Z,20.1
2022-11-07T08:56:56.841Z,19.8
2022-11-07T08:59:15.087Z,20.1
2022-11-07T09:01:33.095Z,19
2022-11-07T09:05:09.160Z,20.1
2022-11-07T09:07:27.303Z,20.2
2022-11-07T09:09:45.277Z,19
2022-11-07T09:12:03.165Z,20.3
2022-11-07T09:14:21.075Z,20.2
2022-11-07T09:16:39.035Z,20.4
2022-11-07T09:18:57.013Z,20.3
2022-11-07T09:21:19.244Z,20.4
2022-11-07T09:23:32.711Z,20.4
2022-11-07T09:25:50.569Z,20.5
2022-11-07T09:28:08.477Z,20.5
2022-11-07T09:30:26.628Z,20.6
2022-11-07T09:33:01.049Z,20.5
2022-11-07T09:35:19.066Z,20.7
2022-11-07T09:37:37.208Z,19.4
2022-11-07T09:39:55.219Z,19.4
2022-11-07T09:42:12.941Z,20.8
2022-11-07T09:44:33.356Z,20.9
2022-11-07T09:46:48.774Z,20.6
2022-11-07T09:49:06.643Z,20.9
2022-11-07T09:51:24.499Z,20.4
2022-11-07T09:53:42.476Z,20.9
2022-11-07T09:56:00.708Z,21
2022-11-07T09:58:18.227Z,20.8
2022-11-07T10:00:36.274Z,20.6
2022-11-07T10:02:54.101Z,20.6
2022-11-07T10:05:29.087Z,20.7
2022-11-07T10:07:47.032Z,20.8
2022-11-07T10:10:05.258Z,20.9
2022-11-07T10:12:23.097Z,20.7
2022-11-07T10:14:41.420Z,20.9
2022-11-07T10:16:59.181Z,20.9
2022-11-07T10:19:17.114Z,20.6
2022-11-07T10:21:54.213Z,20.8
2022-11-07T10:24:11.988Z,20.7
2022-11-07T10:26:29.978Z,20.8
2022-11-07T10:28:47.921Z,20.8
2022-11-07T10:31:06.049Z,20.9
2022-11-07T10:33:23.851Z,19.6
2022-11-07T10:35:41.709Z,20.8
2022-11-07T10:37:59.475Z,20.7
2022-11-07T10:40:17.266Z,20.9
2022-11-07T10:42:35.128Z,20.9
2022-11-07T10:44:52.951Z,21.3
2022-11-07T10:47:10.721Z,21.3
2022-11-07T10:49:28.140Z,21.1
2022-11-07T10:51:45.906Z,21.3
2022-11-07T10:56:21.142Z,21.2
2022-11-07T10:58:38.740Z,21.4
2022-11-07T11:00:56.397Z,21.1
2022-11-07T11:03:13.977Z,21.1
2022-11-07T11:05:32.295Z,21.5
2022-11-07T11:07:49.897Z,21.3
2022-11-07T11:10:07.591Z,21.2
2022-11-07T11:12:25.194Z,21.3
2022-11-07T11:14:42.704Z,21.3
2022-11-07T11:21:35.397Z,21.8
2022-11-07T11:23:52.891Z,21.5
2022-11-07T11:26:10.506Z,21.4
2022-11-07T11:28:28.147Z,21.3
2022-11-07T11:30:45.709Z,21.3
2022-11-07T11:33:03.403Z,21.6
2022-11-07T11:39:56.150Z,21.3
2022-11-07T11:42:13.566Z,21.4
2022-11-07T11:44:31.183Z,21.5
2022-11-07T11:46:48.814Z,21.6
2022-11-07T11:49:06.370Z,21.3
2022-11-07T11:51:23.906Z,21.5
2022-11-07T11:53:41.947Z,21.3
2022-11-07T11:55:59.416Z,21.3
2022-11-07T11:58:17.596Z,20.6
2022-11-07T12:00:35.704Z,19.9
2022-11-07T12:02:54.016Z,19.9
2022-11-07T12:05:11.614Z,19.8
2022-11-07T12:09:48.178Z,20.2
2022-11-07T12:12:06.717Z,19.8
2022-11-07T12:14:24.770Z,19.8
2022-11-07T12:16:43.044Z,19.9
2022-11-07T12:19:01.727Z,20.1
2022-11-07T12:21:19.650Z,20.1
2022-11-07T12:23:38.226Z,20.1
2022-11-07T12:25:56.357Z,20.1
2022-11-07T12:28:14.977Z,20.2
2022-11-07T12:30:33.077Z,20.4
2022-11-07T12:32:51.568Z,19.9
2022-11-07T12:35:09.805Z,20.1
2022-11-07T12:37:27.960Z,20.2
2022-11-07T12:39:46.610Z,20.2
2022-11-07T12:42:04.751Z,19.9
2022-11-07T12:44:23.259Z,19.9
2022-11-07T12:46:41.416Z,19.9
2022-11-07T12:48:59.862Z,20.1
2022-11-07T12:51:18.125Z,20
2022-11-07T12:53:36.699Z,20.1
2022-11-07T12:55:54.929Z,20
2022-11-07T12:58:13.349Z,20.1
2022-11-07T13:00:31.609Z,20.1
2022-11-07T13:02:49.787Z,20.1
2022-11-07T13:05:08.567Z,20.1
2022-11-07T13:07:26.724Z,20
2022-11-07T13:09:45.046Z,19.8
2022-11-07T13:12:03.418Z,19.8
2022-11-07T13:14:24.160Z,19.9
2022-11-07T13:17:02.224Z,20
2022-11-07T13:19:20.429Z,19.9
2022-11-07T13:21:38.700Z,20.1
2022-11-07T13:23:56.963Z,19.9
2022-11-07T13:26:44.948Z,20.1
2022-11-07T13:28:51.376Z,19.8
2022-11-07T13:31:09.527Z,19.8
2022-11-07T13:33:27.772Z,19.9
2022-11-07T13:35:46.061Z,19.8
2022-11-07T13:38:08.440Z,19.8
2022-11-07T13:40:22.551Z,20.1
2022-11-07T13:42:40.764Z,19.8
2022-11-07T13:44:59.058Z,20.1
2022-11-07T13:47:17.240Z,19.9
2022-11-07T13:49:38.792Z,19.8
2022-11-07T13:51:53.714Z,19.8
2022-11-07T13:54:12.000Z,19.9
2022-11-07T13:56:30.468Z,19.8
2022-11-07T13:58:48.516Z,19.9
2022-11-07T14:01:06.839Z,19.8
2022-11-07T14:03:24.967Z,19.7
2022-11-07T14:05:59.382Z,19.8
2022-11-07T14:08:17.592Z,19.8
2022-11-07T14:10:36.052Z,19.7
2022-11-07T14:12:54.284Z,19.8
2022-11-07T14:15:12.520Z,19.8
2022-11-07T14:17:31.108Z,19.6
2022-11-07T14:19:49.281Z,19.6
2022-11-07T14:22:12.225Z,19.6
2022-11-07T14:24:26.024Z,19.8
2022-11-07T14:26:44.577Z,19.7
2022-11-07T14:29:02.000Z,19.7
2022-11-07T14:31:20.376Z,20.8
2022-11-07T14:33:38.592Z,19.5
2022-11-07T14:35:56.552Z,19.5
2022-11-07T14:38:14.379Z,20.4
2022-11-07T14:40:31.789Z,20.8
2022-11-07T14:42:49.585Z,20.9
2022-11-07T14:45:27.849Z,21
2022-11-07T14:48:02.489Z,21
2022-11-07T14:50:20.063Z,21
2022-11-07T14:52:38.094Z,21
2022-11-07T14:54:55.781Z,19.4
2022-11-07T14:57:13.307Z,20.6
2022-11-07T14:59:30.948Z,20.9
2022-11-07T15:04:06.109Z,21
2022-11-07T15:06:23.660Z,20.9
2022-11-07T15:08:41.289Z,21.1
2022-11-07T15:10:58.887Z,20.8
2022-11-07T15:13:16.680Z,20.9
2022-11-07T15:15:34.085Z,20.8
2022-11-07T15:17:51.706Z,20.8
2022-11-07T15:20:09.280Z,20.8
2022-11-07T15:22:28.042Z,21.1
2022-11-07T15:24:45.511Z,20.7
2022-11-07T15:27:03.112Z,20.8
2022-11-07T15:29:20.703Z,21
2022-11-07T15:31:38.705Z,20.8
2022-11-07T15:33:56.669Z,20.3
2022-11-07T15:36:48.615Z,20.3
2022-11-07T15:39:06.610Z,20.3
2022-11-07T15:41:24.515Z,20.3
2022-11-07T15:43:42.493Z,20.4
2022-11-07T15:46:00.437Z,20.3
2022-11-07T15:48:18.927Z,20.3
2022-11-07T15:50:36.422Z,20.2
2022-11-07T15:52:54.350Z,20.3
2022-11-07T15:55:12.289Z,20.2
2022-11-07T15:57:30.396Z,20.3
2022-11-07T15:59:48.613Z,18.8
2022-11-07T16:02:06.589Z,18.9
2022-11-07T16:04:24.594Z,20.3
2022-11-07T16:06:45.895Z,20.1
2022-11-07T16:09:00.250Z,20.1
2022-11-07T16:11:18.186Z,20.1
2022-11-07T16:13:36.064Z,20.2
2022-11-07T16:16:12.799Z,20.1
2022-11-07T16:18:30.629Z,20.4
2022-11-07T16:20:48.486Z,20.2
2022-11-07T16:23:06.447Z,20.1
2022-11-07T16:25:24.302Z,20.1
2022-11-07T16:27:42.394Z,20.1
2022-11-07T16:30:00.574Z,18.8
2022-11-07T16:32:18.865Z,19.9
2022-11-07T16:34:36.272Z,20.2
2022-11-07T16:36:54.164Z,20.1
2022-11-07T16:39:12.156Z,20.1
2022-11-07T16:41:30.053Z,20
2022-11-07T16:43:48.021Z,20
2022-11-07T16:46:05.897Z,20.1
2022-11-07T16:48:23.814Z,19.9
2022-11-07T16:50:41.781Z,19.9
2022-11-07T16:52:59.718Z,19.9
2022-11-07T16:55:17.613Z,19.9
2022-11-07T16:57:35.578Z,20
2022-11-07T16:59:53.591Z,19.8
2022-11-07T17:02:14.226Z,20
2022-11-07T17:04:29.431Z,19.9
2022-11-07T17:06:47.392Z,20.3
2022-11-07T17:09:10.550Z,19.9
2022-11-07T17:11:23.239Z,19.9
2022-11-07T17:13:41.141Z,19.9
2022-11-07T17:15:59.371Z,20
2022-11-07T17:18:17.335Z,19.7
2022-11-07T17:20:50.745Z,19.8
2022-11-07T17:23:01.570Z,19.9
2022-11-07T17:25:19.550Z,20
2022-11-07T17:27:37.466Z,19.8
2022-11-07T17:29:55.366Z,20.1
2022-11-07T17:32:13.405Z,19.8
2022-11-07T17:34:31.454Z,19.8
2022-11-07T17:37:05.867Z,18.6
2022-11-07T17:39:23.758Z,19.5
2022-11-07T17:41:41.810Z,19.9
2022-11-07T17:43:59.893Z,19.9
2022-11-07T17:46:17.829Z,18.4
2022-11-07T17:48:35.873Z,19.8
2022-11-07T17:50:53.780Z,19.7
2022-11-07T17:53:11.800Z,19.9
2022-11-07T17:55:29.694Z,19.8
2022-11-07T17:57:47.624Z,19.8
2022-11-07T18:00:05.557Z,19.9
2022-11-07T18:02:23.640Z,19.7
2022-11-07T18:04:41.523Z,19.7
2022-11-07T18:06:59.798Z,19.9
2022-11-07T18:09:24.418Z,19.8
2022-11-07T18:11:42.361Z,19.8
2022-11-07T18:14:00.366Z,19.6
2022-11-07T18:16:18.586Z,18.3
2022-11-07T18:18:36.624Z,18.4
2022-11-07T18:20:54.580Z,19.7
2022-11-07T18:23:12.523Z,19.8
2022-11-07T18:25:30.479Z,19.6
2022-11-07T18:27:48.566Z,19.6
2022-11-07T18:30:06.568Z,18.4
2022-11-07T18:32:24.576Z,19.6
2022-11-07T18:34:42.598Z,19.6
2022-11-07T18:37:00.486Z,19.7
2022-11-07T18:39:18.445Z,19.6
2022-11-07T18:41:36.436Z,19.5
2022-11-07T18:43:54.338Z,19.7
2022-11-07T18:46:12.270Z,19.4
2022-11-07T18:48:30.296Z,19.6
2022-11-07T18:50:48.273Z,19.4
2022-11-07T18:53:06.692Z,19.7
2022-11-07T18:55:27.426Z,18.4
2022-11-07T18:57:42.252Z,19.5
2022-11-07T19:00:00.188Z,19.5
2022-11-07T19:02:18.222Z,19.5
2022-11-07T19:04:36.131Z,19.6
2022-11-07T19:06:54.135Z,19.5
2022-11-07T19:09:11.966Z,19.5
2022-11-07T19:11:29.949Z,19.6
2022-11-07T19:13:47.882Z,19.6
2022-11-07T19:16:05.855Z,19.4
2022-11-07T19:18:23.774Z,19.4
2022-11-07T19:20:41.738Z,19.5
2022-11-07T19:22:59.695Z,19.4
2022-11-07T19:25:17.714Z,19.4
2022-11-07T19:27:35.569Z,19.3
2022-11-07T19:29:53.667Z,19.6
2022-11-07T19:32:11.537Z,19.5
2022-11-07T19:34:29.415Z,19.3
2022-11-07T19:36:47.444Z,19.6
2022-11-07T19:39:05.557Z,19.6
2022-11-07T19:41:23.332Z,19.3
2022-11-07T19:43:41.311Z,19.6
2022-11-07T19:45:59.306Z,19.3
2022-11-07T19:48:17.204Z,19.3
2022-11-07T19:50:35.187Z,19.6
2022-11-07T19:52:53.146Z,19.3
2022-11-07T19:55:11.064Z,19.4
2022-11-07T19:57:29.046Z,19.3
2022-11-07T19:59:47.046Z,19.6
2022-11-07T20:02:40.216Z,19.4
2022-11-07T20:04:49.165Z,19.3
2022-11-07T20:07:07.266Z,19.3
2022-11-07T20:09:24.950Z,19.3
2022-11-07T20:11:42.931Z,19.3
2022-11-07T20:14:03.510Z,19.5
2022-11-07T20:16:18.778Z,19.4
2022-11-07T20:18:36.849Z,19.4
2022-11-07T20:20:55.060Z,19.3
2022-11-07T20:23:12.726Z,18.1
2022-11-07T20:25:30.969Z,19.4
2022-11-07T20:27:48.762Z,18.3
2022-11-07T20:30:07.105Z,19.2
2022-11-07T20:32:24.570Z,19.3
2022-11-07T20:34:42.629Z,19.4
2022-11-07T20:37:00.825Z,19.3
2022-11-07T20:39:18.535Z,18.3
2022-11-07T20:41:36.394Z,19.2
2022-11-07T20:43:54.189Z,19.3
2022-11-07T20:46:12.344Z,19.3
2022-11-07T20:48:30.096Z,18.3
2022-11-07T20:50:47.869Z,19.3
2022-11-07T20:53:05.868Z,19.3
2022-11-07T20:55:23.794Z,19.3
2022-11-07T20:57:41.662Z,19.2
2022-11-07T20:59:59.446Z,19.3
2022-11-07T21:02:17.415Z,19.3
2022-11-07T21:04:49.766Z,19.1
2022-11-07T21:07:07.427Z,19.1
2022-11-07T21:09:25.374Z,19.3
2022-11-07T21:11:43.366Z,19.2
2022-11-07T21:14:01.150Z,19.3
2022-11-07T21:16:18.862Z,19.3
2022-11-07T21:18:37.049Z,19.3
2022-11-07T21:20:54.827Z,18.2
2022-11-07T21:23:12.807Z,19.3
2022-11-07T21:25:30.719Z,19.3
2022-11-07T21:27:48.641Z,19.2
2022-11-07T21:30:06.607Z,19.1
2022-11-07T21:32:24.439Z,19.3
2022-11-07T21:34:42.311Z,19.3
2022-11-07T21:37:00.244Z,19.3
2022-11-07T21:39:18.225Z,19.4
2022-11-07T21:41:36.259Z,19.4
2022-11-07T21:43:54.189Z,18.9
2022-11-07T21:46:12.075Z,17.9
2022-11-07T21:48:29.917Z,19.4
2022-11-07T21:51:00.612Z,19.1
2022-11-07T21:53:18.836Z,19.2
2022-11-07T21:55:36.603Z,19.3
2022-11-07T21:57:54.386Z,19.1
2022-11-07T22:00:12.352Z,19.2
2022-11-07T22:02:30.116Z,19.2
2022-11-07T22:05:08.478Z,19.2
2022-11-07T22:07:26.294Z,19.1
2022-11-07T22:09:44.042Z,19.2
2022-11-07T22:12:02.046Z,19.1
2022-11-07T22:14:20.090Z,19.1
2022-11-07T22:16:38.471Z,18.1
2022-11-07T22:18:56.341Z,18.3
2022-11-07T22:21:14.166Z,19.2
2022-11-07T22:23:32.084Z,19.3
2022-11-07T22:25:49.853Z,19.1
2022-11-07T22:28:08.032Z,19
2022-11-07T22:30:25.761Z,19.3
2022-11-07T22:32:43.903Z,19.1
2022-11-07T22:35:06.382Z,19.1
2022-11-07T22:37:19.557Z,18.1
2022-11-07T22:39:37.632Z,19.3
2022-11-07T22:41:55.301Z,19.2
2022-11-07T22:44:13.273Z,19.3
2022-11-07T22:46:31.213Z,19.3
2022-11-07T22:48:48.900Z,19.3
2022-11-07T22:51:06.982Z,19.1
2022-11-07T22:53:25.097Z,19.2
2022-11-07T22:55:43.287Z,18.2
2022-11-07T22:58:01.616Z,18.3
2022-11-07T23:00:22.315Z,18.3
2022-11-07T23:02:40.036Z,18.5
2022-11-07T23:04:57.899Z,19.3
2022-11-07T23:07:15.922Z,19.3
2022-11-07T23:09:33.963Z,19.1
2022-11-07T23:12:09.042Z,18.2
2022-11-07T23:14:27.047Z,19.3
2022-11-07T23:16:45.048Z,19.3
2022-11-07T23:19:02.905Z,19.2
2022-11-07T23:21:20.779Z,19.4
2022-11-07T23:23:38.712Z,19.1
2022-11-07T23:25:56.525Z,19.3
2022-11-07T23:28:15.014Z,19.1
2022-11-07T23:30:32.507Z,18.3
2022-11-07T23:32:50.389Z,19.3
2022-11-07T23:35:08.267Z,19.3
2022-11-07T23:37:26.068Z,19.1
2022-11-07T23:39:43.852Z,19.3
2022-11-07T23:42:01.849Z,19.3
2022-11-07T23:44:19.887Z,19.2
2022-11-07T23:46:37.524Z,19
2022-11-07T23:48:55.326Z,19.3
2022-11-07T23:51:13.101Z,19.1
2022-11-07T23:53:31.070Z,19.1
2022-11-07T23:55:49.240Z,19.2
2022-11-07T23:58:06.964Z,18.2
